sensor_id;sensor_type;location;lat;lon;timestamp;pressure;altitude;pressure_sealevel;temperature;humidity
34237;BME280;20501;45.956;13.632;2023-04-27T00:01:56;100702.84;;;13.72;60.73
34237;BME280;20501;45.956;13.632;2023-04-27T00:04:21;100704.16;;;14.13;59.56
34237;BME280;20501;45.956;13.632;2023-04-27T00:06:47;100709.59;;;14.13;59.89
34237;BME280;20501;45.956;13.632;2023-04-27T00:09:12;100704.81;;;13.26;59.53
34237;BME280;20501;45.956;13.632;2023-04-27T00:11:37;100703.34;;;13.13;59.31
34237;BME280;20501;45.956;13.632;2023-04-27T00:14:03;100699.25;;;13.45;58.63
34237;BME280;20501;45.956;13.632;2023-04-27T00:16:28;100697.25;;;13.92;59.86
34237;BME280;20501;45.956;13.632;2023-04-27T00:18:54;100696.03;;;13.86;58.96
34237;BME280;20501;45.956;13.632;2023-04-27T00:21:20;100698.63;;;14.31;59.42
34237;BME280;20501;45.956;13.632;2023-04-27T00:23:45;100695.88;;;13.70;58.72
34237;BME280;20501;45.956;13.632;2023-04-27T00:26:11;100688.47;;;12.72;60.88
34237;BME280;20501;45.956;13.632;2023-04-27T00:28:36;100690.06;;;13.10;62.76
34237;BME280;20501;45.956;13.632;2023-04-27T00:31:01;100687.56;;;12.99;61.20
34237;BME280;20501;45.956;13.632;2023-04-27T00:33:29;100695.50;;;12.64;60.21
34237;BME280;20501;45.956;13.632;2023-04-27T00:35:58;100692.38;;;12.59;61.45
34237;BME280;20501;45.956;13.632;2023-04-27T00:38:24;100693.91;;;12.44;60.45
34237;BME280;20501;45.956;13.632;2023-04-27T00:40:49;100695.56;;;12.82;62.24
34237;BME280;20501;45.956;13.632;2023-04-27T00:43:15;100702.84;;;13.72;60.49
34237;BME280;20501;45.956;13.632;2023-04-27T00:45:41;100704.31;;;13.85;60.19
34237;BME280;20501;45.956;13.632;2023-04-27T00:48:08;100699.22;;;13.27;59.48
34237;BME280;20501;45.956;13.632;2023-04-27T00:50:34;100701.06;;;14.07;58.62
34237;BME280;20501;45.956;13.632;2023-04-27T00:53:02;100702.28;;;13.87;59.52
34237;BME280;20501;45.956;13.632;2023-04-27T00:55:29;100714.16;;;14.38;59.05
34237;BME280;20501;45.956;13.632;2023-04-27T00:57:55;100716.78;;;13.51;58.94
34237;BME280;20501;45.956;13.632;2023-04-27T01:00:20;100712.47;;;13.12;61.86
34237;BME280;20501;45.956;13.632;2023-04-27T01:02:46;100722.31;;;13.68;59.06
34237;BME280;20501;45.956;13.632;2023-04-27T01:05:13;100720.34;;;13.96;60.21
34237;BME280;20501;45.956;13.632;2023-04-27T01:07:39;100725.19;;;13.84;58.79
34237;BME280;20501;45.956;13.632;2023-04-27T01:10:05;100721.56;;;13.57;59.73
34237;BME280;20501;45.956;13.632;2023-04-27T01:12:32;100722.97;;;13.61;60.89
34237;BME280;20501;45.956;13.632;2023-04-27T01:14:57;100720.25;;;13.61;59.44
34237;BME280;20501;45.956;13.632;2023-04-27T01:17:23;100722.16;;;12.31;62.35
34237;BME280;20501;45.956;13.632;2023-04-27T01:19:48;100716.72;;;12.03;63.71
34237;BME280;20501;45.956;13.632;2023-04-27T01:22:15;100724.22;;;12.57;64.41
34237;BME280;20501;45.956;13.632;2023-04-27T01:24:41;100726.88;;;12.95;63.15
34237;BME280;20501;45.956;13.632;2023-04-27T01:27:06;100720.84;;;11.78;64.63
34237;BME280;20501;45.956;13.632;2023-04-27T01:29:32;100722.25;;;12.77;64.29
34237;BME280;20501;45.956;13.632;2023-04-27T01:31:58;100720.81;;;13.91;60.62
34237;BME280;20501;45.956;13.632;2023-04-27T01:34:23;100723.19;;;13.68;60.75
34237;BME280;20501;45.956;13.632;2023-04-27T01:36:49;100716.19;;;14.10;58.60
34237;BME280;20501;45.956;13.632;2023-04-27T01:39:14;100724.59;;;14.51;58.71
34237;BME280;20501;45.956;13.632;2023-04-27T01:41:40;100721.03;;;14.59;58.37
34237;BME280;20501;45.956;13.632;2023-04-27T01:44:06;100730.59;;;14.29;57.88
34237;BME280;20501;45.956;13.632;2023-04-27T01:46:31;100729.31;;;12.32;65.08
34237;BME280;20501;45.956;13.632;2023-04-27T01:48:56;100729.28;;;13.88;61.09
34237;BME280;20501;45.956;13.632;2023-04-27T01:51:22;100735.53;;;14.33;59.73
34237;BME280;20501;45.956;13.632;2023-04-27T01:53:48;100734.34;;;12.17;63.22
34237;BME280;20501;45.956;13.632;2023-04-27T01:56:13;100738.66;;;12.00;64.64
34237;BME280;20501;45.956;13.632;2023-04-27T01:58:39;100744.31;;;12.17;67.16
34237;BME280;20501;45.956;13.632;2023-04-27T02:01:04;100747.06;;;12.07;66.98
34237;BME280;20501;45.956;13.632;2023-04-27T02:03:30;100744.56;;;12.23;66.84
34237;BME280;20501;45.956;13.632;2023-04-27T02:05:55;100739.84;;;13.19;62.77
34237;BME280;20501;45.956;13.632;2023-04-27T02:08:20;100741.34;;;14.12;60.54
34237;BME280;20501;45.956;13.632;2023-04-27T02:10:46;100738.72;;;13.40;62.49
34237;BME280;20501;45.956;13.632;2023-04-27T02:13:11;100744.78;;;14.22;59.94
34237;BME280;20501;45.956;13.632;2023-04-27T02:15:37;100742.91;;;11.83;66.03
34237;BME280;20501;45.956;13.632;2023-04-27T02:18:02;100747.97;;;12.73;65.27
34237;BME280;20501;45.956;13.632;2023-04-27T02:20:29;100736.72;;;13.14;64.21
34237;BME280;20501;45.956;13.632;2023-04-27T02:22:55;100740.78;;;11.77;66.96
34237;BME280;20501;45.956;13.632;2023-04-27T02:25:20;100747.34;;;12.51;65.64
34237;BME280;20501;45.956;13.632;2023-04-27T02:27:46;100745.63;;;13.52;62.94
34237;BME280;20501;45.956;13.632;2023-04-27T02:30:12;100743.50;;;13.82;61.40
34237;BME280;20501;45.956;13.632;2023-04-27T02:32:37;100734.72;;;14.15;60.85
34237;BME280;20501;45.956;13.632;2023-04-27T02:35:04;100735.34;;;13.10;62.89
34237;BME280;20501;45.956;13.632;2023-04-27T02:37:29;100742.56;;;12.91;64.07
34237;BME280;20501;45.956;13.632;2023-04-27T02:39:55;100743.81;;;13.61;63.01
34237;BME280;20501;45.956;13.632;2023-04-27T02:42:21;100736.59;;;12.88;63.79
34237;BME280;20501;45.956;13.632;2023-04-27T02:44:46;100743.75;;;13.71;62.07
34237;BME280;20501;45.956;13.632;2023-04-27T02:47:12;100749.00;;;12.62;65.73
34237;BME280;20501;45.956;13.632;2023-04-27T02:49:38;100747.22;;;12.99;64.86
34237;BME280;20501;45.956;13.632;2023-04-27T02:52:05;100758.25;;;13.43;63.71
34237;BME280;20501;45.956;13.632;2023-04-27T02:54:30;100747.66;;;13.95;62.13
34237;BME280;20501;45.956;13.632;2023-04-27T02:56:56;100752.16;;;14.04;61.53
34237;BME280;20501;45.956;13.632;2023-04-27T02:59:21;100749.00;;;14.43;60.40
34237;BME280;20501;45.956;13.632;2023-04-27T03:01:47;100755.72;;;14.57;60.08
34237;BME280;20501;45.956;13.632;2023-04-27T03:04:12;100753.25;;;13.93;60.89
34237;BME280;20501;45.956;13.632;2023-04-27T03:06:42;100764.97;;;13.93;62.36
34237;BME280;20501;45.956;13.632;2023-04-27T03:09:07;100758.13;;;12.61;63.12
34237;BME280;20501;45.956;13.632;2023-04-27T03:11:34;100755.38;;;13.63;63.15
34237;BME280;20501;45.956;13.632;2023-04-27T03:14:00;100757.31;;;13.53;63.27
34237;BME280;20501;45.956;13.632;2023-04-27T03:16:26;100761.75;;;12.80;62.71
34237;BME280;20501;45.956;13.632;2023-04-27T03:18:51;100758.97;;;13.64;62.83
34237;BME280;20501;45.956;13.632;2023-04-27T03:21:16;100758.66;;;13.93;61.45
34237;BME280;20501;45.956;13.632;2023-04-27T03:23:42;100757.47;;;14.40;60.24
34237;BME280;20501;45.956;13.632;2023-04-27T03:26:09;100755.25;;;13.65;62.34
34237;BME280;20501;45.956;13.632;2023-04-27T03:28:35;100750.16;;;12.88;62.46
34237;BME280;20501;45.956;13.632;2023-04-27T03:31:05;100759.97;;;12.23;64.00
34237;BME280;20501;45.956;13.632;2023-04-27T03:33:31;100756.94;;;12.74;64.69
34237;BME280;20501;45.956;13.632;2023-04-27T03:35:56;100762.75;;;13.07;64.19
34237;BME280;20501;45.956;13.632;2023-04-27T03:38:23;100768.47;;;13.04;62.87
34237;BME280;20501;45.956;13.632;2023-04-27T03:40:48;100765.88;;;13.30;63.22
34237;BME280;20501;45.956;13.632;2023-04-27T03:43:14;100774.81;;;13.95;61.31
34237;BME280;20501;45.956;13.632;2023-04-27T03:45:39;100778.00;;;14.34;60.02
34237;BME280;20501;45.956;13.632;2023-04-27T03:48:05;100781.75;;;13.89;61.13
34237;BME280;20501;45.956;13.632;2023-04-27T03:50:30;100781.38;;;14.36;59.69
34237;BME280;20501;45.956;13.632;2023-04-27T03:52:55;100783.34;;;14.52;59.62
34237;BME280;20501;45.956;13.632;2023-04-27T03:55:21;100790.09;;;14.40;60.08
34237;BME280;20501;45.956;13.632;2023-04-27T03:57:46;100785.53;;;13.78;60.14
34237;BME280;20501;45.956;13.632;2023-04-27T04:00:12;100791.38;;;12.53;64.10
34237;BME280;20501;45.956;13.632;2023-04-27T04:02:39;100794.59;;;13.51;61.97
34237;BME280;20501;45.956;13.632;2023-04-27T04:05:04;100788.72;;;13.09;63.16
34237;BME280;20501;45.956;13.632;2023-04-27T04:07:30;100796.31;;;13.06;65.01
34237;BME280;20501;45.956;13.632;2023-04-27T04:09:55;100794.91;;;12.64;64.22
34237;BME280;20501;45.956;13.632;2023-04-27T04:12:21;100797.81;;;13.82;62.41
34237;BME280;20501;45.956;13.632;2023-04-27T04:14:46;100793.22;;;14.27;61.17
34237;BME280;20501;45.956;13.632;2023-04-27T04:17:13;100798.97;;;13.61;62.27
34237;BME280;20501;45.956;13.632;2023-04-27T04:19:39;100791.19;;;13.85;61.51
34237;BME280;20501;45.956;13.632;2023-04-27T04:22:04;100802.63;;;14.15;61.29
34237;BME280;20501;45.956;13.632;2023-04-27T04:24:29;100799.72;;;14.08;61.24
34237;BME280;20501;45.956;13.632;2023-04-27T04:26:55;100806.22;;;14.42;60.45
34237;BME280;20501;45.956;13.632;2023-04-27T04:29:21;100806.44;;;14.48;60.18
34237;BME280;20501;45.956;13.632;2023-04-27T04:31:46;100804.03;;;14.19;61.17
34237;BME280;20501;45.956;13.632;2023-04-27T04:34:12;100801.09;;;14.38;60.51
34237;BME280;20501;45.956;13.632;2023-04-27T04:36:38;100800.28;;;13.75;61.91
34237;BME280;20501;45.956;13.632;2023-04-27T04:39:04;100794.44;;;14.33;60.73
34237;BME280;20501;45.956;13.632;2023-04-27T04:41:30;100796.34;;;12.96;63.98
34237;BME280;20501;45.956;13.632;2023-04-27T04:43:56;100805.63;;;12.08;66.27
34237;BME280;20501;45.956;13.632;2023-04-27T04:46:22;100815.09;;;13.81;62.62
34237;BME280;20501;45.956;13.632;2023-04-27T04:48:49;100818.53;;;13.37;62.78
34237;BME280;20501;45.956;13.632;2023-04-27T04:51:15;100826.94;;;12.88;62.93
34237;BME280;20501;45.956;13.632;2023-04-27T04:53:41;100819.69;;;13.62;63.01
34237;BME280;20501;45.956;13.632;2023-04-27T04:56:10;100825.31;;;14.05;61.73
34237;BME280;20501;45.956;13.632;2023-04-27T04:58:36;100831.63;;;13.70;61.88
34237;BME280;20501;45.956;13.632;2023-04-27T05:01:02;100833.03;;;13.74;61.48
34237;BME280;20501;45.956;13.632;2023-04-27T05:03:27;100829.13;;;13.03;62.86
34237;BME280;20501;45.956;13.632;2023-04-27T05:05:53;100821.97;;;12.83;64.66
34237;BME280;20501;45.956;13.632;2023-04-27T05:08:18;100830.50;;;12.89;63.11
34237;BME280;20501;45.956;13.632;2023-04-27T05:10:51;100821.81;;;12.37;65.69
34237;BME280;20501;45.956;13.632;2023-04-27T05:13:16;100831.03;;;12.92;64.35
34237;BME280;20501;45.956;13.632;2023-04-27T05:15:42;100829.75;;;12.59;65.73
34237;BME280;20501;45.956;13.632;2023-04-27T05:18:07;100834.09;;;13.81;62.40
34237;BME280;20501;45.956;13.632;2023-04-27T05:20:34;100837.91;;;13.52;59.07
34237;BME280;20501;45.956;13.632;2023-04-27T05:23:00;100835.03;;;13.90;61.34
34237;BME280;20501;45.956;13.632;2023-04-27T05:25:28;100836.22;;;14.32;60.52
34237;BME280;20501;45.956;13.632;2023-04-27T05:27:53;100833.41;;;14.42;60.28
34237;BME280;20501;45.956;13.632;2023-04-27T05:30:19;100835.59;;;13.93;57.70
34237;BME280;20501;45.956;13.632;2023-04-27T05:32:45;100839.25;;;14.02;58.66
34237;BME280;20501;45.956;13.632;2023-04-27T05:35:10;100828.72;;;13.25;57.93
34237;BME280;20501;45.956;13.632;2023-04-27T05:37:36;100820.13;;;13.30;59.04
34237;BME280;20501;45.956;13.632;2023-04-27T05:40:01;100827.81;;;13.44;61.51
34237;BME280;20501;45.956;13.632;2023-04-27T05:42:28;100838.53;;;14.00;58.46
34237;BME280;20501;45.956;13.632;2023-04-27T05:44:53;100841.34;;;14.35;59.43
34237;BME280;20501;45.956;13.632;2023-04-27T05:47:19;100850.41;;;13.81;58.71
34237;BME280;20501;45.956;13.632;2023-04-27T05:49:49;100856.47;;;13.19;58.10
34237;BME280;20501;45.956;13.632;2023-04-27T05:52:15;100859.13;;;13.29;58.36
34237;BME280;20501;45.956;13.632;2023-04-27T05:54:45;100859.22;;;13.09;61.19
34237;BME280;20501;45.956;13.632;2023-04-27T05:57:10;100866.66;;;13.07;59.45
34237;BME280;20501;45.956;13.632;2023-04-27T05:59:36;100864.31;;;13.22;62.18
34237;BME280;20501;45.956;13.632;2023-04-27T06:02:01;100868.63;;;13.71;61.57
34237;BME280;20501;45.956;13.632;2023-04-27T06:04:27;100860.47;;;13.71;59.40
34237;BME280;20501;45.956;13.632;2023-04-27T06:06:56;100866.94;;;14.06;60.91
34237;BME280;20501;45.956;13.632;2023-04-27T06:09:22;100855.59;;;13.92;56.83
34237;BME280;20501;45.956;13.632;2023-04-27T06:11:47;100854.53;;;13.85;59.57
34237;BME280;20501;45.956;13.632;2023-04-27T06:14:13;100853.06;;;13.17;58.21
34237;BME280;20501;45.956;13.632;2023-04-27T06:16:38;100855.22;;;13.13;61.97
34237;BME280;20501;45.956;13.632;2023-04-27T06:19:05;100855.75;;;12.89;59.46
34237;BME280;20501;45.956;13.632;2023-04-27T06:21:32;100847.03;;;12.85;59.89
34237;BME280;20501;45.956;13.632;2023-04-27T06:23:58;100864.91;;;12.78;60.88
34237;BME280;20501;45.956;13.632;2023-04-27T06:26:23;100858.06;;;12.84;60.32
34237;BME280;20501;45.956;13.632;2023-04-27T06:28:48;100864.09;;;13.34;60.57
34237;BME280;20501;45.956;13.632;2023-04-27T06:31:15;100862.81;;;13.38;57.37
34237;BME280;20501;45.956;13.632;2023-04-27T06:33:40;100866.22;;;13.68;59.00
34237;BME280;20501;45.956;13.632;2023-04-27T06:36:06;100852.78;;;13.48;57.95
34237;BME280;20501;45.956;13.632;2023-04-27T06:38:31;100854.47;;;13.49;57.89
34237;BME280;20501;45.956;13.632;2023-04-27T06:40:57;100851.63;;;13.87;60.03
34237;BME280;20501;45.956;13.632;2023-04-27T06:43:23;100847.16;;;13.77;57.59
34237;BME280;20501;45.956;13.632;2023-04-27T06:45:48;100857.16;;;13.59;60.53
34237;BME280;20501;45.956;13.632;2023-04-27T06:48:14;100867.63;;;13.72;60.32
34237;BME280;20501;45.956;13.632;2023-04-27T06:50:40;100863.81;;;13.65;57.11
34237;BME280;20501;45.956;13.632;2023-04-27T06:53:05;100873.94;;;13.35;57.72
34237;BME280;20501;45.956;13.632;2023-04-27T06:55:31;100870.50;;;13.14;56.96
34237;BME280;20501;45.956;13.632;2023-04-27T06:57:56;100875.56;;;12.99;57.36
34237;BME280;20501;45.956;13.632;2023-04-27T07:00:21;100886.88;;;13.23;56.49
34237;BME280;20501;45.956;13.632;2023-04-27T07:02:47;100883.28;;;13.96;59.88
34237;BME280;20501;45.956;13.632;2023-04-27T07:05:12;100885.91;;;13.70;56.54
34237;BME280;20501;45.956;13.632;2023-04-27T07:07:38;100886.94;;;14.05;59.74
34237;BME280;20501;45.956;13.632;2023-04-27T07:10:04;100877.22;;;14.20;58.59
34237;BME280;20501;45.956;13.632;2023-04-27T07:12:30;100882.91;;;13.73;59.50
34237;BME280;20501;45.956;13.632;2023-04-27T07:14:55;100879.31;;;13.72;59.06
34237;BME280;20501;45.956;13.632;2023-04-27T07:17:20;100880.22;;;13.91;57.47
34237;BME280;20501;45.956;13.632;2023-04-27T07:19:46;100878.69;;;13.60;60.56
34237;BME280;20501;45.956;13.632;2023-04-27T07:22:11;100877.88;;;13.96;57.96
34237;BME280;20501;45.956;13.632;2023-04-27T07:24:37;100877.06;;;14.40;59.47
34237;BME280;20501;45.956;13.632;2023-04-27T07:27:02;100879.94;;;14.65;58.62
34237;BME280;20501;45.956;13.632;2023-04-27T07:29:28;100883.66;;;14.82;58.33
34237;BME280;20501;45.956;13.632;2023-04-27T07:31:55;100886.03;;;14.77;58.42
34237;BME280;20501;45.956;13.632;2023-04-27T07:34:20;100878.06;;;14.83;58.22
34237;BME280;20501;45.956;13.632;2023-04-27T07:36:46;100881.09;;;14.80;58.16
34237;BME280;20501;45.956;13.632;2023-04-27T07:39:12;100880.78;;;14.39;57.99
34237;BME280;20501;45.956;13.632;2023-04-27T07:41:37;100882.34;;;14.42;54.68
34237;BME280;20501;45.956;13.632;2023-04-27T07:44:03;100878.78;;;14.41;54.41
34237;BME280;20501;45.956;13.632;2023-04-27T07:46:28;100889.66;;;14.05;54.82
34237;BME280;20501;45.956;13.632;2023-04-27T07:48:55;100886.09;;;14.04;55.07
34237;BME280;20501;45.956;13.632;2023-04-27T07:51:23;100892.53;;;13.67;54.34
34237;BME280;20501;45.956;13.632;2023-04-27T07:53:49;100888.56;;;13.61;55.90
34237;BME280;20501;45.956;13.632;2023-04-27T07:56:15;100888.94;;;13.49;56.10
34237;BME280;20501;45.956;13.632;2023-04-27T07:58:41;100901.34;;;13.51;56.71
34237;BME280;20501;45.956;13.632;2023-04-27T08:01:07;100898.91;;;14.12;58.15
34237;BME280;20501;45.956;13.632;2023-04-27T08:03:33;100895.34;;;14.12;55.30
34237;BME280;20501;45.956;13.632;2023-04-27T08:05:58;100902.25;;;14.24;57.21
34237;BME280;20501;45.956;13.632;2023-04-27T08:08:24;100898.97;;;14.20;55.66
34237;BME280;20501;45.956;13.632;2023-04-27T08:10:49;100891.50;;;14.40;58.08
34237;BME280;20501;45.956;13.632;2023-04-27T08:13:15;100896.50;;;14.72;57.63
34237;BME280;20501;45.956;13.632;2023-04-27T08:15:40;100888.84;;;14.49;53.74
34237;BME280;20501;45.956;13.632;2023-04-27T08:18:06;100888.84;;;14.31;54.33
34237;BME280;20501;45.956;13.632;2023-04-27T08:20:31;100886.25;;;14.65;57.11
34237;BME280;20501;45.956;13.632;2023-04-27T08:22:57;100890.16;;;14.63;54.61
34237;BME280;20501;45.956;13.632;2023-04-27T08:25:22;100886.38;;;14.37;53.01
34237;BME280;20501;45.956;13.632;2023-04-27T08:27:47;100887.94;;;14.40;53.98
34237;BME280;20501;45.956;13.632;2023-04-27T08:30:13;100890.19;;;14.27;53.21
34237;BME280;20501;45.956;13.632;2023-04-27T08:32:38;100894.19;;;14.59;55.93
34237;BME280;20501;45.956;13.632;2023-04-27T08:35:05;100887.13;;;14.48;56.99
34237;BME280;20501;45.956;13.632;2023-04-27T08:37:30;100884.34;;;14.39;53.61
34237;BME280;20501;45.956;13.632;2023-04-27T08:39:56;100887.56;;;14.61;52.83
34237;BME280;20501;45.956;13.632;2023-04-27T08:42:21;100887.97;;;14.66;54.37
34237;BME280;20501;45.956;13.632;2023-04-27T08:44:47;100890.69;;;14.66;52.44
34237;BME280;20501;45.956;13.632;2023-04-27T08:47:12;100891.47;;;14.77;52.88
34237;BME280;20501;45.956;13.632;2023-04-27T08:49:38;100887.69;;;14.51;52.42
34237;BME280;20501;45.956;13.632;2023-04-27T08:52:13;100886.34;;;14.55;52.46
34237;BME280;20501;45.956;13.632;2023-04-27T08:54:39;100889.94;;;14.56;51.81
34237;BME280;20501;45.956;13.632;2023-04-27T08:57:09;100885.75;;;14.44;51.69
34237;BME280;20501;45.956;13.632;2023-04-27T08:59:34;100889.47;;;14.43;52.21
34237;BME280;20501;45.956;13.632;2023-04-27T09:02:00;100892.53;;;14.66;55.42
34237;BME280;20501;45.956;13.632;2023-04-27T09:04:35;100896.72;;;14.78;52.20
34237;BME280;20501;45.956;13.632;2023-04-27T09:07:21;100899.84;;;14.83;51.82
34237;BME280;20501;45.956;13.632;2023-04-27T09:09:47;100903.97;;;14.69;51.85
34237;BME280;20501;45.956;13.632;2023-04-27T09:12:20;100903.97;;;14.69;51.99
34237;BME280;20501;45.956;13.632;2023-04-27T09:14:59;100908.16;;;14.64;51.76
34237;BME280;20501;45.956;13.632;2023-04-27T09:17:28;100908.75;;;14.94;54.10
34237;BME280;20501;45.956;13.632;2023-04-27T09:20:06;100914.59;;;14.81;55.01
34237;BME280;20501;45.956;13.632;2023-04-27T09:22:49;100916.91;;;14.94;53.56
34237;BME280;20501;45.956;13.632;2023-04-27T09:25:41;100911.56;;;14.84;52.30
34237;BME280;20501;45.956;13.632;2023-04-27T09:28:08;100910.47;;;15.03;55.48
34237;BME280;20501;45.956;13.632;2023-04-27T09:30:33;100912.41;;;15.11;53.17
34237;BME280;20501;45.956;13.632;2023-04-27T09:33:01;100906.00;;;15.28;56.03
34237;BME280;20501;45.956;13.632;2023-04-27T09:35:29;100913.13;;;15.21;54.66
34237;BME280;20501;45.956;13.632;2023-04-27T09:37:56;100909.28;;;15.40;56.07
34237;BME280;20501;45.956;13.632;2023-04-27T09:40:24;100905.06;;;15.46;54.42
34237;BME280;20501;45.956;13.632;2023-04-27T09:42:54;100907.28;;;15.51;55.32
34237;BME280;20501;45.956;13.632;2023-04-27T09:45:22;100908.75;;;15.37;53.74
34237;BME280;20501;45.956;13.632;2023-04-27T09:47:47;100900.25;;;15.31;52.47
34237;BME280;20501;45.956;13.632;2023-04-27T09:50:13;100905.56;;;15.41;52.59
34237;BME280;20501;45.956;13.632;2023-04-27T09:52:39;100906.28;;;15.52;50.83
34237;BME280;20501;45.956;13.632;2023-04-27T09:55:08;100892.72;;;15.60;50.59
34237;BME280;20501;45.956;13.632;2023-04-27T09:57:39;100904.63;;;15.59;50.29
34237;BME280;20501;45.956;13.632;2023-04-27T10:08:49;100901.31;;;15.47;50.81
34237;BME280;20501;45.956;13.632;2023-04-27T10:11:16;100904.63;;;15.59;49.14
34237;BME280;20501;45.956;13.632;2023-04-27T10:13:53;100903.09;;;15.65;48.94
34237;BME280;20501;45.956;13.632;2023-04-27T10:16:21;100887.41;;;15.67;50.35
34237;BME280;20501;45.956;13.632;2023-04-27T10:18:51;100888.81;;;15.71;50.93
34237;BME280;20501;45.956;13.632;2023-04-27T10:21:19;100897.66;;;15.73;52.01
34237;BME280;20501;45.956;13.632;2023-04-27T10:23:54;100886.97;;;15.79;52.10
34237;BME280;20501;45.956;13.632;2023-04-27T10:26:27;100883.22;;;15.81;53.02
34237;BME280;20501;45.956;13.632;2023-04-27T10:29:08;100881.41;;;15.98;51.87
34237;BME280;20501;45.956;13.632;2023-04-27T10:31:34;100887.38;;;16.09;47.77
34237;BME280;20501;45.956;13.632;2023-04-27T10:34:10;100873.75;;;16.18;47.51
34237;BME280;20501;45.956;13.632;2023-04-27T10:36:39;100879.03;;;16.28;47.61
34237;BME280;20501;45.956;13.632;2023-04-27T10:39:19;100873.06;;;16.40;46.77
34237;BME280;20501;45.956;13.632;2023-04-27T10:41:52;100871.00;;;16.18;46.17
34237;BME280;20501;45.956;13.632;2023-04-27T10:44:39;100871.69;;;16.20;47.98
34237;BME280;20501;45.956;13.632;2023-04-27T10:47:15;100875.28;;;16.29;46.31
34237;BME280;20501;45.956;13.632;2023-04-27T10:49:41;100862.31;;;16.47;46.36
34237;BME280;20501;45.956;13.632;2023-04-27T10:52:07;100860.78;;;16.53;45.24
34237;BME280;20501;45.956;13.632;2023-04-27T10:54:32;100862.50;;;16.54;42.31
34237;BME280;20501;45.956;13.632;2023-04-27T10:57:09;100860.25;;;16.58;42.22
34237;BME280;20501;45.956;13.632;2023-04-27T10:59:49;100859.91;;;16.69;41.06
34237;BME280;20501;45.956;13.632;2023-04-27T11:02:16;100853.25;;;16.71;40.48
34237;BME280;20501;45.956;13.632;2023-04-27T11:04:41;100856.44;;;16.92;41.42
34237;BME280;20501;45.956;13.632;2023-04-27T11:07:08;100855.25;;;16.94;41.28
34237;BME280;20501;45.956;13.632;2023-04-27T11:09:34;100854.56;;;16.84;38.47
34237;BME280;20501;45.956;13.632;2023-04-27T11:12:01;100849.81;;;16.86;36.00
34237;BME280;20501;45.956;13.632;2023-04-27T11:14:26;100844.00;;;16.89;35.91
34237;BME280;20501;45.956;13.632;2023-04-27T11:16:51;100854.56;;;17.00;38.11
34237;BME280;20501;45.956;13.632;2023-04-27T11:19:17;100846.22;;;16.94;37.18
34237;BME280;20501;45.956;13.632;2023-04-27T11:21:42;100847.38;;;16.91;37.37
34237;BME280;20501;45.956;13.632;2023-04-27T11:24:08;100845.53;;;16.92;37.88
34237;BME280;20501;45.956;13.632;2023-04-27T11:26:34;100842.78;;;17.00;37.15
34237;BME280;20501;45.956;13.632;2023-04-27T11:29:09;100836.94;;;17.11;36.94
34237;BME280;20501;45.956;13.632;2023-04-27T11:34:05;100833.34;;;17.19;34.48
34237;BME280;20501;45.956;13.632;2023-04-27T11:36:31;100831.38;;;16.96;37.67
34237;BME280;20501;45.956;13.632;2023-04-27T11:38:57;100836.56;;;17.23;35.88
34237;BME280;20501;45.956;13.632;2023-04-27T11:41:32;100831.72;;;17.33;33.16
34237;BME280;20501;45.956;13.632;2023-04-27T11:44:06;100822.16;;;17.37;32.92
34237;BME280;20501;45.956;13.632;2023-04-27T11:46:35;100824.50;;;17.40;30.43
34237;BME280;20501;45.956;13.632;2023-04-27T11:49:04;100824.22;;;17.35;33.85
34237;BME280;20501;45.956;13.632;2023-04-27T11:51:31;100824.91;;;17.60;31.42
34237;BME280;20501;45.956;13.632;2023-04-27T11:54:01;100823.09;;;17.53;35.92
34237;BME280;20501;45.956;13.632;2023-04-27T11:56:36;100832.16;;;17.45;34.87
34237;BME280;20501;45.956;13.632;2023-04-27T11:59:02;100832.22;;;17.37;36.34
34237;BME280;20501;45.956;13.632;2023-04-27T12:01:32;100832.06;;;17.30;35.06
34237;BME280;20501;45.956;13.632;2023-04-27T12:03:59;100838.69;;;17.36;38.28
34237;BME280;20501;45.956;13.632;2023-04-27T12:06:26;100826.50;;;17.55;36.07
34237;BME280;20501;45.956;13.632;2023-04-27T12:08:53;100817.13;;;17.49;35.75
34237;BME280;20501;45.956;13.632;2023-04-27T12:11:19;100820.19;;;17.54;36.11
34237;BME280;20501;45.956;13.632;2023-04-27T12:13:44;100829.09;;;17.71;34.06
34237;BME280;20501;45.956;13.632;2023-04-27T12:16:11;100827.66;;;17.60;34.80
34237;BME280;20501;45.956;13.632;2023-04-27T12:18:37;100821.56;;;17.73;33.89
34237;BME280;20501;45.956;13.632;2023-04-27T12:21:03;100821.47;;;17.35;37.43
34237;BME280;20501;45.956;13.632;2023-04-27T12:23:30;100814.47;;;17.64;33.91
34237;BME280;20501;45.956;13.632;2023-04-27T12:25:55;100817.88;;;17.66;33.28
34237;BME280;20501;45.956;13.632;2023-04-27T12:28:21;100818.97;;;17.57;35.92
34237;BME280;20501;45.956;13.632;2023-04-27T12:30:46;100812.78;;;17.63;34.54
34237;BME280;20501;45.956;13.632;2023-04-27T12:33:11;100815.16;;;17.66;33.47
34237;BME280;20501;45.956;13.632;2023-04-27T12:35:37;100807.78;;;17.67;32.94
34237;BME280;20501;45.956;13.632;2023-04-27T12:38:02;100809.88;;;17.64;37.45
34237;BME280;20501;45.956;13.632;2023-04-27T12:40:28;100804.50;;;18.18;32.66
34237;BME280;20501;45.956;13.632;2023-04-27T12:42:54;100816.16;;;17.88;33.28
34237;BME280;20501;45.956;13.632;2023-04-27T12:45:19;100818.84;;;17.73;31.49
34237;BME280;20501;45.956;13.632;2023-04-27T12:47:45;100816.84;;;17.44;32.57
34237;BME280;20501;45.956;13.632;2023-04-27T12:50:12;100807.19;;;17.56;33.57